Time;durP1;ratioP1;P1;durP2;ratioP2;P2;SDS_P1;SDS_P2;PMS_P1;PMS_P2;Temp;Humidity;BMP_temperature;BMP_pressure;BME280_temperature;BME280_humidity;BME280_pressure;Samples;Min_cycle;Max_cycle;Signal;HPM_P1;HPM_P2
2023/04/19 00:00:45;;;;;;;2.20;2.00;;;20.20;67.90;;;;;;4944177;29;20445;-94
2023/04/19 00:03:13;;;;;;;1.90;1.80;;;20.20;67.90;;;;;;4943817;29;21001;-94
2023/04/19 00:05:43;;;;;;;1.93;1.83;;;20.20;67.90;;;;;;4943587;29;20457;-95
2023/04/19 00:08:14;;;;;;;1.70;1.60;;;20.20;67.90;;;;;;4942213;29;20461;-93
2023/04/19 00:10:41;;;;;;;1.93;1.73;;;20.20;68.00;;;;;;4943841;29;20856;-93
2023/04/19 00:13:08;;;;;;;2.27;2.07;;;20.20;68.00;;;;;;4947143;29;20455;-95
2023/04/19 00:15:35;;;;;;;2.30;2.10;;;20.20;67.90;;;;;;4942878;29;20486;-93
2023/04/19 00:18:02;;;;;;;2.20;2.10;;;20.20;67.90;;;;;;4940633;29;20866;-93
2023/04/19 00:20:29;;;;;;;2.20;2.00;;;20.20;67.90;;;;;;4942907;29;20493;-96
2023/04/19 00:22:58;;;;;;;2.63;2.43;;;20.20;67.90;;;;;;4942290;29;20858;-94
2023/04/19 00:25:27;;;;;;;1.63;1.53;;;20.20;67.90;;;;;;4943031;29;20493;-94
2023/04/19 00:27:54;;;;;;;2.20;2.00;;;20.20;67.90;;;;;;4942697;29;20466;-94
2023/04/19 00:30:21;;;;;;;2.10;2.00;;;20.20;67.90;;;;;;4942285;29;20460;-93
2023/04/19 00:32:48;;;;;;;1.90;1.80;;;20.20;67.90;;;;;;4941069;29;20439;-94
2023/04/19 00:35:15;;;;;;;2.13;2.03;;;20.20;68.20;;;;;;4945724;29;20446;-96
2023/04/19 00:37:45;;;;;;;1.97;1.87;;;20.30;67.90;;;;;;4945231;29;20461;-93
2023/04/19 00:40:15;;;;;;;1.73;1.63;;;20.20;67.90;;;;;;4945313;29;20524;-95
2023/04/19 00:42:44;;;;;;;2.20;2.00;;;20.20;67.90;;;;;;4942258;29;20457;-93
2023/04/19 00:45:12;;;;;;;2.37;2.20;;;20.20;67.90;;;;;;4945676;29;20496;-94
2023/04/19 00:47:39;;;;;;;1.90;1.80;;;20.20;67.80;;;;;;4943258;29;20455;-94
2023/04/19 00:50:08;;;;;;;2.20;2.10;;;20.20;67.90;;;;;;4946207;29;20515;-94
2023/04/19 00:52:35;;;;;;;1.80;1.70;;;20.20;67.90;;;;;;4941028;29;20923;-96
2023/04/19 00:55:04;;;;;;;2.00;1.90;;;20.20;67.90;;;;;;4945655;29;20490;-94
2023/04/19 00:57:32;;;;;;;2.00;1.80;;;20.10;67.80;;;;;;4943891;29;20455;-94
2023/04/19 01:00:01;;;;;;;2.00;1.90;;;20.00;67.70;;;;;;4944249;29;20435;-94
2023/04/19 01:02:28;;;;;;;2.20;2.10;;;20.10;67.80;;;;;;4943496;29;20914;-94
2023/04/19 01:04:58;;;;;;;2.40;2.20;;;20.10;67.80;;;;;;4943073;29;20487;-94
2023/04/19 01:07:26;;;;;;;1.80;1.70;;;20.10;67.80;;;;;;4946200;29;20487;-94
2023/04/19 01:09:53;;;;;;;2.23;2.13;;;20.10;67.80;;;;;;4946343;29;20473;-96
2023/04/19 01:12:21;;;;;;;2.10;2.00;;;20.10;67.80;;;;;;4946080;29;20489;-95
2023/04/19 01:14:48;;;;;;;2.30;2.20;;;20.10;68.60;;;;;;4946756;29;20474;-96
2023/04/19 01:17:21;;;;;;;2.27;2.10;;;20.10;67.80;;;;;;4944026;29;20481;-94
2023/04/19 01:19:48;;;;;;;2.40;2.20;;;20.30;68.10;;;;;;4946728;29;20454;-94
2023/04/19 01:22:23;;;;;;;2.17;2.07;;;20.10;67.80;;;;;;4945412;29;20490;-93
2023/04/19 01:24:50;;;;;;;2.10;2.00;;;20.10;67.80;;;;;;4947032;29;20485;-94
2023/04/19 01:27:18;;;;;;;1.80;1.70;;;20.10;67.90;;;;;;4944801;29;20447;-96
2023/04/19 01:29:46;;;;;;;2.00;1.90;;;20.10;67.80;;;;;;4946347;29;20450;-96
2023/04/19 01:32:13;;;;;;;2.20;2.00;;;20.10;67.80;;;;;;4943865;29;20443;-94
2023/04/19 01:34:43;;;;;;;2.00;1.90;;;20.10;67.80;;;;;;4948511;29;20450;-94
2023/04/19 01:37:10;;;;;;;3.67;2.13;;;20.10;67.80;;;;;;4944748;29;20817;-95
2023/04/19 01:39:38;;;;;;;1.87;1.77;;;20.20;67.90;;;;;;4947503;29;20450;-96
2023/04/19 01:42:05;;;;;;;2.03;1.93;;;20.10;67.80;;;;;;4947024;29;20816;-95
2023/04/19 01:44:36;;;;;;;2.17;2.07;;;20.10;67.80;;;;;;4943341;29;20486;-94
2023/04/19 01:47:06;;;;;;;2.10;1.90;;;20.10;67.80;;;;;;4947875;29;20450;-96
2023/04/19 01:49:36;;;;;;;2.10;2.00;;;20.10;67.80;;;;;;4956738;23;20506;-95
2023/04/19 01:52:05;;;;;;;1.93;1.83;;;20.10;67.90;;;;;;4948872;29;20462;-96
2023/04/19 01:54:32;;;;;;;2.27;2.07;;;20.10;67.80;;;;;;4946143;29;20964;-93
2023/04/19 01:57:01;;;;;;;2.20;2.00;;;20.10;67.80;;;;;;4944979;29;20454;-95
2023/04/19 01:59:28;;;;;;;2.03;1.93;;;20.10;67.80;;;;;;4947737;29;20465;-95
2023/04/19 02:01:55;;;;;;;1.80;1.70;;;20.20;68.00;;;;;;4945309;29;20426;-96
2023/04/19 02:04:22;;;;;;;2.13;2.03;;;20.10;67.80;;;;;;4946639;29;20474;-93
2023/04/19 02:06:50;;;;;;;2.00;1.90;;;20.10;67.80;;;;;;4944796;29;20454;-95
2023/04/19 02:09:17;;;;;;;1.70;1.60;;;20.10;67.80;;;;;;4948708;29;20569;-92
2023/04/19 02:11:46;;;;;;;2.17;2.07;;;20.10;67.80;;;;;;4943520;29;20451;-95
2023/04/19 02:14:14;;;;;;;1.97;1.87;;;20.10;67.80;;;;;;4945437;29;20545;-93
2023/04/19 02:16:41;;;;;;;2.23;2.13;;;20.10;67.80;;;;;;4945640;29;20506;-96
2023/04/19 02:19:08;;;;;;;2.03;1.93;;;20.10;67.80;;;;;;4950547;29;20451;-93
2023/04/19 02:21:38;;;;;;;2.30;2.20;;;20.10;67.80;;;;;;4951740;29;20522;-93
2023/04/19 02:24:07;;;;;;;2.20;2.10;;;20.10;67.80;;;;;;4944619;29;20537;-95
2023/04/19 02:26:35;;;;;;;2.40;2.30;;;20.10;67.70;;;;;;4949070;29;20483;-92
2023/04/19 02:29:02;;;;;;;1.90;1.80;;;19.90;67.50;;;;;;4949522;29;20477;-96
2023/04/19 02:31:30;;;;;;;1.83;1.73;;;20.10;67.80;;;;;;4947845;29;20465;-93
2023/04/19 02:33:58;;;;;;;2.10;1.90;;;20.10;67.80;;;;;;4947176;29;20466;-96
2023/04/19 02:36:28;;;;;;;2.37;2.27;;;20.10;67.80;;;;;;4949231;29;20441;-96
2023/04/19 02:38:58;;;;;;;1.90;1.80;;;20.10;67.80;;;;;;4951612;29;20467;-96
2023/04/19 02:41:26;;;;;;;2.07;1.97;;;20.00;67.70;;;;;;4947249;29;20506;-95
2023/04/19 02:43:53;;;;;;;2.10;2.00;;;20.10;67.80;;;;;;4944215;29;20451;-94
2023/04/19 02:46:23;;;;;;;2.07;1.97;;;20.10;67.90;;;;;;4953939;23;20530;-94
2023/04/19 02:48:52;;;;;;;2.53;2.33;;;20.10;67.80;;;;;;4947935;29;20530;-95
2023/04/19 02:51:19;;;;;;;1.67;1.57;;;20.10;67.90;;;;;;4951506;29;20443;-94
2023/04/19 02:53:46;;;;;;;1.87;1.77;;;20.10;67.80;;;;;;4950826;29;20458;-95
2023/04/19 02:59:36;;;;;;;1.87;1.77;;;20.10;67.80;;;;;;4945310;29;20466;-94
2023/04/19 03:05:27;;;;;;;1.83;1.73;;;20.10;67.90;;;;;;4948490;29;20462;-94
2023/04/19 03:07:55;;;;;;;2.20;2.00;;;20.00;67.90;;;;;;4955772;23;20494;-94
2023/04/19 03:10:23;;;;;;;1.80;1.70;;;20.00;67.80;;;;;;4961016;23;20496;-94
2023/04/19 03:12:52;;;;;;;1.80;1.70;;;20.00;67.80;;;;;;4946283;28;20469;-94
2023/04/19 03:15:19;;;;;;;1.90;1.80;;;19.90;67.60;;;;;;4994572;23;20505;-94
2023/04/19 03:17:47;;;;;;;1.80;1.70;;;20.00;67.70;;;;;;4924818;29;20452;-94
2023/04/19 03:20:19;;;;;;;1.83;1.73;;;20.00;67.70;;;;;;4934824;29;20462;-94
2023/04/19 03:22:48;;;;;;;2.30;2.10;;;20.00;67.70;;;;;;4928124;29;20465;-94
2023/04/19 03:25:20;;;;;;;1.80;1.70;;;20.00;67.70;;;;;;4929268;29;20519;-95
2023/04/19 03:27:51;;;;;;;2.07;1.93;;;20.00;67.70;;;;;;4927995;29;20462;-94
2023/04/19 03:37:03;;;;;;;2.57;1.93;;;19.90;67.60;;;;;;4939420;29;20453;-95
2023/04/19 03:39:34;;;;;;;1.97;1.87;;;20.00;67.70;;;;;;4926318;28;20931;-94
2023/04/19 03:42:04;;;;;;;1.50;1.40;;;20.00;67.80;;;;;;4947904;23;20548;-95
2023/04/19 03:49:04;;;;;;;1.60;1.50;;;20.00;67.80;;;;;;4939380;29;20468;-94
2023/04/19 03:51:40;;;;;;;2.17;2.07;;;20.00;67.80;;;;;;4947901;29;20454;-95
2023/04/19 03:54:08;;;;;;;2.03;1.87;;;19.90;67.70;;;;;;4943726;29;20451;-95
2023/04/19 03:56:39;;;;;;;1.97;1.87;;;20.00;67.80;;;;;;4969995;23;20486;-94
2023/04/19 03:59:06;;;;;;;2.00;1.90;;;19.90;67.60;;;;;;4946937;29;20447;-94
2023/04/19 04:01:40;;;;;;;2.30;2.10;;;20.00;67.70;;;;;;4947142;29;20462;-94
2023/04/19 04:04:08;;;;;;;2.20;2.00;;;19.90;67.60;;;;;;4945460;29;20436;-95
2023/04/19 04:06:35;;;;;;;1.90;1.80;;;20.00;67.70;;;;;;4945740;29;20458;-94
2023/04/19 04:12:34;;;;;;;1.90;1.80;;;20.00;67.70;;;;;;4939376;29;20536;-95
2023/04/19 04:15:01;;;;;;;2.10;1.57;;;20.00;67.70;;;;;;4946790;28;20479;-94
2023/04/19 04:17:28;;;;;;;1.90;1.80;;;19.90;67.60;;;;;;4947183;29;20449;-94
2023/04/19 04:19:56;;;;;;;2.10;2.00;;;19.80;67.40;;;;;;4945456;29;20455;-95
2023/04/19 04:22:23;;;;;;;1.77;1.67;;;19.90;67.60;;;;;;4943352;29;20481;-94
2023/04/19 04:24:52;;;;;;;2.00;1.90;;;20.00;67.70;;;;;;4940105;29;20481;-94
2023/04/19 04:27:23;;;;;;;1.60;1.50;;;20.00;67.60;;;;;;4943884;28;20469;-94
2023/04/19 04:29:52;;;;;;;2.03;1.93;;;20.00;67.60;;;;;;4939275;23;20501;-94
2023/04/19 04:36:10;;;;;;;1.77;1.67;;;20.00;67.50;;;;;;4938149;29;20462;-94
2023/04/19 04:38:37;;;;;;;1.80;1.70;;;19.90;67.50;;;;;;4942001;28;20459;-94
2023/04/19 04:41:05;;;;;;;2.33;2.23;;;19.90;67.50;;;;;;4954401;23;20521;-94
2023/04/19 04:47:51;;;;;;;1.97;1.87;;;20.00;67.80;;;;;;4939986;29;20464;-93
2023/04/19 04:50:21;;;;;;;1.90;1.80;;;19.90;67.80;;;;;;4992624;23;20926;-93
2023/04/19 04:52:48;;;;;;;2.00;1.80;;;19.90;67.80;;;;;;4952785;29;20455;-94
2023/04/19 04:55:16;;;;;;;2.23;1.87;;;19.90;67.90;;;;;;4959600;23;20435;-93
2023/04/19 04:57:43;;;;;;;1.77;1.60;;;19.90;67.80;;;;;;4971220;23;21029;-93
2023/04/19 05:00:11;;;;;;;1.87;1.77;;;19.90;67.80;;;;;;4960243;23;20532;-93
2023/04/19 05:02:38;;;;;;;2.33;2.13;;;19.90;67.90;;;;;;4948538;29;20461;-93
2023/04/19 05:05:06;;;;;;;1.67;1.57;;;20.00;68.90;;;;;;4933426;29;20466;-94
2023/04/19 05:07:34;;;;;;;1.70;1.60;;;20.00;68.00;;;;;;4953627;29;20434;-94
2023/04/19 05:10:02;;;;;;;1.80;1.70;;;20.00;68.00;;;;;;5025561;23;20478;-95
2023/04/19 05:12:29;;;;;;;2.03;1.83;;;19.90;67.90;;;;;;4946368;29;21009;-94
2023/04/19 05:14:56;;;;;;;1.63;1.53;;;19.90;68.00;;;;;;4944714;29;20526;-95
2023/04/19 05:17:23;;;;;;;1.63;1.50;;;19.90;68.00;;;;;;4944772;29;20468;-95
2023/04/19 05:20:03;;;;;;;2.13;2.03;;;20.00;68.10;;;;;;4944457;29;20457;-94
2023/04/19 05:22:57;;;;;;;2.37;2.17;;;19.90;68.00;;;;;;4925721;29;20478;-94
2023/04/19 05:25:27;;;;;;;1.93;1.83;;;19.90;68.00;;;;;;4945380;29;20507;-94
2023/04/19 05:27:55;;;;;;;1.50;1.40;;;19.90;68.10;;;;;;4942188;29;20457;-94
2023/04/19 05:30:22;;;;;;;1.70;1.60;;;20.00;68.20;;;;;;4945983;29;20553;-94
2023/04/19 05:32:51;;;;;;;2.00;1.80;;;19.90;68.10;;;;;;4947530;29;20451;-94
2023/04/19 05:35:21;;;;;;;1.83;1.73;;;19.90;68.10;;;;;;4945590;29;20470;-95
2023/04/19 05:37:53;;;;;;;2.07;1.97;;;19.90;68.10;;;;;;4944905;29;20450;-93
2023/04/19 05:43:04;;;;;;;2.03;1.93;;;20.00;68.20;;;;;;4945244;29;20429;-95
2023/04/19 05:45:41;;;;;;;1.90;1.80;;;19.90;68.10;;;;;;4977642;23;20453;-95
2023/04/19 05:48:08;;;;;;;1.70;1.60;;;20.00;69.00;;;;;;5000304;23;20513;-92
2023/04/19 05:51:18;;;;;;;2.23;2.10;;;20.00;68.10;;;;;;4938632;29;20451;-91
2023/04/19 05:53:45;;;;;;;1.50;1.40;;;20.00;67.60;;;;;;4941580;29;21028;-92
2023/04/19 05:56:13;;;;;;;1.73;1.63;;;20.10;68.10;;;;;;4938822;29;20460;-92
2023/04/19 05:58:40;;;;;;;1.60;1.50;;;20.00;67.90;;;;;;4939536;29;20838;-92
2023/04/19 06:01:07;;;;;;;2.27;2.07;;;20.00;67.90;;;;;;4939165;29;20202;-92
2023/04/19 06:03:33;;;;;;;1.80;1.70;;;20.10;67.10;;;;;;4939188;29;20957;-92
2023/04/19 06:06:00;;;;;;;1.77;1.67;;;20.00;67.30;;;;;;4939014;29;20500;-91
2023/04/19 06:08:27;;;;;;;1.57;1.47;;;20.00;67.50;;;;;;4938688;29;20457;-92
2023/04/19 06:10:55;;;;;;;2.67;2.20;;;20.00;67.40;;;;;;4938822;29;20447;-92
2023/04/19 06:13:23;;;;;;;1.73;1.63;;;20.10;67.80;;;;;;4939586;29;20471;-91
2023/04/19 06:15:50;;;;;;;5.40;1.63;;;20.10;67.90;;;;;;4939104;29;20553;-93
2023/04/19 06:18:17;;;;;;;1.97;1.87;;;20.00;67.90;;;;;;4938847;29;20456;-92
2023/04/19 06:20:44;;;;;;;1.60;1.50;;;20.00;67.90;;;;;;4938652;29;20884;-92
2023/04/19 06:23:11;;;;;;;2.27;1.70;;;20.00;67.90;;;;;;4938709;29;20553;-90
2023/04/19 06:25:38;;;;;;;2.37;2.17;;;20.00;67.90;;;;;;4938447;29;20481;-91
2023/04/19 06:28:05;;;;;;;2.50;2.30;;;20.20;68.10;;;;;;4938218;29;20471;-90
2023/04/19 06:30:34;;;;;;;1.57;1.47;;;20.10;68.10;;;;;;4937803;29;20463;-91
2023/04/19 06:33:01;;;;;;;1.97;1.77;;;20.10;68.00;;;;;;4939257;29;20469;-96
2023/04/19 06:35:28;;;;;;;2.80;2.03;;;20.10;68.00;;;;;;4938651;29;20990;-90
2023/04/19 06:37:55;;;;;;;1.60;1.50;;;20.10;67.60;;;;;;4938230;29;20447;-90
2023/04/19 06:40:22;;;;;;;2.93;1.97;;;20.10;66.90;;;;;;4938178;29;20957;-91
2023/04/19 06:42:48;;;;;;;2.00;1.80;;;20.10;67.70;;;;;;4938860;29;20448;-89
2023/04/19 06:45:16;;;;;;;1.70;1.60;;;20.10;67.80;;;;;;4939527;29;21060;-94
2023/04/19 06:47:44;;;;;;;1.73;1.63;;;20.10;67.90;;;;;;4937506;29;20529;-87
2023/04/19 06:50:12;;;;;;;1.97;1.77;;;20.20;68.00;;;;;;4937826;29;20471;-87
2023/04/19 06:52:39;;;;;;;1.60;1.50;;;20.10;67.90;;;;;;4937981;29;20454;-89
2023/04/19 06:55:06;;;;;;;2.10;1.90;;;20.30;68.00;;;;;;4937766;29;20451;-91
2023/04/19 06:57:33;;;;;;;2.53;2.30;;;20.10;67.70;;;;;;4937792;29;20447;-92
2023/04/19 07:00:00;;;;;;;2.93;2.73;;;20.10;67.70;;;;;;4938359;29;20443;-87
2023/04/19 07:02:27;;;;;;;3.00;2.70;;;20.10;67.70;;;;;;4936853;29;20443;-89
2023/04/19 07:04:55;;;;;;;3.10;2.83;;;20.10;67.60;;;;;;4937558;29;20457;-92
2023/04/19 07:07:22;;;;;;;3.50;3.20;;;20.10;67.60;;;;;;4937701;29;20988;-91
2023/04/19 07:09:49;;;;;;;2.50;2.30;;;20.10;67.60;;;;;;4937642;29;20538;-89
2023/04/19 07:12:16;;;;;;;2.73;2.50;;;20.10;67.50;;;;;;4937657;29;20538;-92
2023/04/19 07:14:43;;;;;;;3.40;2.67;;;20.10;67.50;;;;;;4938953;29;20563;-90
2023/04/19 07:17:11;;;;;;;4.47;2.80;;;20.10;67.40;;;;;;4938659;29;20458;-90
2023/04/19 07:19:39;;;;;;;2.40;2.23;;;20.20;67.60;;;;;;4937680;29;20450;-90
2023/04/19 07:22:07;;;;;;;4.37;2.67;;;20.30;67.70;;;;;;4939048;29;20463;-93
2023/04/19 07:24:34;;;;;;;2.50;2.30;;;20.30;67.90;;;;;;4938027;29;20541;-88
2023/04/19 07:27:01;;;;;;;4.03;2.40;;;20.10;67.60;;;;;;4937046;29;20577;-87
2023/04/19 07:30:08;;;;;;;2.80;2.60;;;20.30;68.10;;;;;;4937166;29;20457;-91
2023/04/19 07:32:35;;;;;;;2.93;2.70;;;20.10;67.70;;;;;;4918375;29;20436;-88
2023/04/19 07:35:09;;;;;;;2.83;2.37;;;20.10;67.90;;;;;;4918137;29;20444;-91
2023/04/19 07:37:37;;;;;;;3.33;2.93;;;20.20;67.90;;;;;;4918246;29;20794;-91
2023/04/19 07:40:05;;;;;;;6.30;2.60;;;20.20;67.90;;;;;;4918483;29;20456;-91
2023/04/19 07:42:32;;;;;;;3.13;2.40;;;20.20;67.90;;;;;;4918165;29;20448;-91
2023/04/19 07:44:59;;;;;;;2.70;2.50;;;20.20;68.30;;;;;;4918038;29;20879;-90
2023/04/19 07:47:26;;;;;;;3.20;2.90;;;20.20;68.30;;;;;;4918363;29;20514;-90
2023/04/19 07:49:53;;;;;;;2.70;2.50;;;20.20;68.30;;;;;;4918398;29;20543;-91
2023/04/19 07:52:20;;;;;;;2.80;2.17;;;20.20;68.30;;;;;;4917661;29;20458;-88
2023/04/19 07:54:48;;;;;;;2.50;2.30;;;20.30;68.40;;;;;;4917699;29;20894;-89
2023/04/19 07:57:15;;;;;;;5.63;2.40;;;20.40;68.90;;;;;;4917715;29;20463;-87
2023/04/19 07:59:47;;;;;;;2.57;2.37;;;20.30;68.60;;;;;;4917512;29;20490;-94
2023/04/19 08:02:15;;;;;;;2.33;2.13;;;20.30;68.40;;;;;;4917797;29;20440;-91
2023/04/19 08:08:04;;;;;;;4.37;2.30;;;20.30;68.00;;;;;;4920749;29;20971;-90
2023/04/19 08:10:34;;;;;;;6.50;2.40;;;20.30;63.70;;;;;;4921431;29;20458;-90
2023/04/19 08:13:01;;;;;;;4.00;3.30;;;20.30;66.40;;;;;;4918346;29;20464;-91
2023/04/19 08:15:29;;;;;;;2.33;2.13;;;20.40;66.60;;;;;;4919355;29;20508;-90
2023/04/19 08:17:56;;;;;;;2.60;2.40;;;20.40;64.60;;;;;;4919303;29;20466;-90
2023/04/19 08:20:23;;;;;;;9.03;2.40;;;20.20;63.80;;;;;;4919033;29;20538;-89
2023/04/19 08:22:51;;;;;;;4.43;1.93;;;20.40;65.40;;;;;;4918567;29;20452;-88
2023/04/19 08:25:18;;;;;;;3.00;2.10;;;20.40;65.40;;;;;;4920356;29;20477;-88
2023/04/19 08:27:46;;;;;;;2.97;2.27;;;20.40;65.40;;;;;;4918650;29;20546;-86
2023/04/19 08:30:14;;;;;;;4.00;2.80;;;20.50;65.50;;;;;;4918849;29;20503;-88
2023/04/19 08:32:41;;;;;;;4.23;2.40;;;20.50;65.60;;;;;;4918721;29;20460;-88
2023/04/19 08:35:10;;;;;;;4.07;2.60;;;20.50;65.60;;;;;;4919482;29;20455;-82
2023/04/19 08:37:38;;;;;;;5.73;2.00;;;20.50;64.90;;;;;;4922758;29;20491;-82
2023/04/19 08:40:06;;;;;;;2.27;2.07;;;20.50;65.50;;;;;;4918630;29;20448;-87
2023/04/19 08:42:35;;;;;;;2.53;2.00;;;20.60;65.60;;;;;;4919482;29;20451;-86
2023/04/19 08:45:05;;;;;;;3.43;2.27;;;20.60;65.60;;;;;;4919913;29;21067;-84
2023/04/19 08:47:33;;;;;;;4.40;2.70;;;20.60;65.60;;;;;;4919303;29;20554;-83
2023/04/19 08:50:01;;;;;;;2.57;2.37;;;20.70;65.70;;;;;;4917719;29;20468;-84
2023/04/19 08:52:28;;;;;;;5.93;2.73;;;20.70;65.70;;;;;;4934749;29;20447;-83
2023/04/19 08:54:56;;;;;;;3.20;2.27;;;20.80;65.70;;;;;;4917951;29;20444;-83
2023/04/19 08:57:23;;;;;;;2.60;2.40;;;20.80;65.80;;;;;;4917761;29;20455;-83
2023/04/19 08:59:54;;;;;;;2.53;2.17;;;20.80;65.80;;;;;;4918270;29;20452;-83
2023/04/19 09:02:24;;;;;;;4.20;2.37;;;20.80;65.90;;;;;;4919889;29;20450;-84
2023/04/19 09:04:51;;;;;;;2.60;1.80;;;20.90;66.10;;;;;;4917437;29;20940;-84
2023/04/19 09:07:25;;;;;;;4.83;2.00;;;20.90;66.00;;;;;;4917479;29;20506;-82
2023/04/19 09:10:06;;;;;;;3.10;1.80;;;21.00;66.10;;;;;;4917603;29;20455;-82
2023/04/19 09:12:33;;;;;;;2.43;2.00;;;21.00;66.10;;;;;;4921392;29;20446;-83
2023/04/19 09:15:02;;;;;;;2.00;1.90;;;21.00;66.10;;;;;;4935167;29;20970;-84
2023/04/19 09:17:31;;;;;;;2.30;1.67;;;21.10;63.00;;;;;;4935041;29;20518;-83
2023/04/19 09:19:58;;;;;;;5.23;2.00;;;21.00;65.30;;;;;;4935273;29;21005;-84
2023/04/19 09:22:26;;;;;;;3.97;2.37;;;21.00;65.40;;;;;;4935277;29;20819;-83
2023/04/19 09:24:53;;;;;;;6.40;2.10;;;21.10;65.50;;;;;;4935984;29;20458;-83
2023/04/19 09:27:27;;;;;;;2.73;2.53;;;21.00;65.40;;;;;;4938241;29;20589;-83
2023/04/19 09:29:55;;;;;;;2.37;1.70;;;21.10;65.50;;;;;;4922541;29;20470;-84
2023/04/19 09:32:23;;;;;;;1.90;1.80;;;21.10;65.50;;;;;;4924401;29;20455;-84
2023/04/19 09:34:55;;;;;;;3.10;1.80;;;21.20;65.50;;;;;;4920011;29;20939;-83
2023/04/19 09:37:23;;;;;;;2.23;2.03;;;21.20;65.50;;;;;;4919741;29;20447;-83
2023/04/19 09:39:50;;;;;;;1.50;1.40;;;21.40;65.80;;;;;;4920196;29;20443;-84
2023/04/19 09:42:18;;;;;;;1.97;1.60;;;21.20;65.70;;;;;;4920136;29;20502;-83
2023/04/19 09:45:00;;;;;;;2.93;1.90;;;21.30;65.80;;;;;;4919966;29;20522;-85
2023/04/19 09:47:28;;;;;;;2.43;1.73;;;21.40;65.90;;;;;;4917637;29;20499;-86
2023/04/19 09:50:08;;;;;;;3.83;2.00;;;21.40;65.80;;;;;;4919751;29;20463;-85
2023/04/19 09:52:36;;;;;;;1.97;1.73;;;21.40;65.90;;;;;;4920048;29;20457;-86
2023/04/19 09:55:04;;;;;;;1.83;1.73;;;21.50;66.20;;;;;;4919896;29;20451;-86
2023/04/19 09:57:32;;;;;;;1.60;1.50;;;21.50;66.00;;;;;;4919801;29;20474;-84
2023/04/19 10:00:00;;;;;;;2.63;1.87;;;21.50;66.20;;;;;;4919626;29;20448;-90
2023/04/19 10:02:31;;;;;;;1.70;1.60;;;21.60;66.40;;;;;;4919576;29;20447;-85
2023/04/19 10:04:58;;;;;;;2.73;2.53;;;21.70;66.30;;;;;;4919911;29;20436;-85
2023/04/19 10:07:27;;;;;;;3.90;1.83;;;21.60;66.40;;;;;;4919498;29;20500;-85
2023/04/19 10:09:56;;;;;;;1.90;1.60;;;21.60;66.40;;;;;;4919462;29;20504;-85
2023/04/19 10:12:25;;;;;;;1.80;1.53;;;21.60;66.30;;;;;;4919556;29;20476;-85
2023/04/19 10:14:53;;;;;;;2.20;2.00;;;21.60;65.70;;;;;;4919533;29;20474;-85
2023/04/19 10:17:28;;;;;;;1.83;1.50;;;21.50;65.30;;;;;;4923148;29;20977;-96
2023/04/19 10:20:05;;;;;;;3.10;1.90;;;21.50;65.70;;;;;;4938047;23;20573;-93
2023/04/19 10:22:36;;;;;;;4.70;1.80;;;21.50;65.40;;;;;;4940388;29;20455;-94
2023/04/19 10:25:11;;;;;;;2.50;1.73;;;21.60;65.30;;;;;;4939850;29;20608;-94
2023/04/19 10:27:39;;;;;;;3.50;2.23;;;21.70;65.20;;;;;;4939319;29;20585;-94
2023/04/19 10:30:16;;;;;;;2.50;1.87;;;21.70;65.10;;;;;;4938920;29;20852;-94
2023/04/19 10:32:45;;;;;;;4.77;1.80;;;21.80;65.20;;;;;;4939887;29;20450;-96
2023/04/19 10:35:18;;;;;;;4.90;2.00;;;21.80;65.30;;;;;;4938711;29;20474;-95
2023/04/19 10:38:06;;;;;;;3.03;1.80;;;21.90;65.40;;;;;;4937886;29;20506;-94
2023/04/19 10:40:55;;;;;;;2.10;1.90;;;21.90;65.60;;;;;;4939723;29;20448;-95
2023/04/19 10:43:23;;;;;;;2.70;1.83;;;21.90;65.70;;;;;;4935418;29;20476;-95
2023/04/19 10:45:51;;;;;;;2.60;1.70;;;21.90;65.50;;;;;;4939754;29;20505;-94
2023/04/19 10:48:53;;;;;;;2.00;1.80;;;21.90;65.70;;;;;;4939743;29;20514;-95
2023/04/19 10:51:22;;;;;;;3.10;1.60;;;21.90;64.50;;;;;;4880786;29;20569;-95
2023/04/19 10:53:53;;;;;;;2.30;1.87;;;21.90;65.80;;;;;;4880484;29;20454;-95
2023/04/19 10:56:22;;;;;;;3.00;1.97;;;21.90;65.80;;;;;;4909372;29;20487;-96
2023/04/19 10:59:20;;;;;;;3.00;1.70;;;22.00;65.70;;;;;;4939572;29;20455;-96
2023/04/19 11:01:52;;;;;;;2.23;1.63;;;22.10;65.70;;;;;;4940109;29;20455;-96
2023/04/19 11:04:21;;;;;;;2.93;1.53;;;22.10;65.70;;;;;;4939416;29;20481;-89
2023/04/19 11:07:00;;;;;;;3.60;1.40;;;22.10;65.70;;;;;;4937537;29;20487;-89
2023/04/19 11:09:33;;;;;;;2.57;2.10;;;22.00;64.40;;;;;;4937825;29;20799;-87
2023/04/19 11:12:01;;;;;;;1.70;1.60;;;22.00;65.30;;;;;;4937517;29;20872;-90
2023/04/19 11:14:32;;;;;;;4.93;1.77;;;21.90;65.20;;;;;;4937711;29;20549;-94
2023/04/19 11:17:00;;;;;;;1.50;1.40;;;21.80;64.90;;;;;;4937669;29;20463;-91
2023/04/19 11:19:26;;;;;;;3.27;1.40;;;21.70;65.10;;;;;;4937264;29;20454;-90
2023/04/19 11:21:58;;;;;;;2.20;1.67;;;21.70;65.00;;;;;;4937050;29;20581;-89
2023/04/19 11:24:25;;;;;;;3.23;1.57;;;21.60;65.10;;;;;;4937165;29;20964;-91
2023/04/19 11:26:58;;;;;;;2.80;1.90;;;21.60;65.30;;;;;;4949367;29;20512;-91
2023/04/19 11:29:25;;;;;;;2.67;2.17;;;21.60;65.50;;;;;;4944451;29;20455;-90
2023/04/19 11:31:52;;;;;;;2.20;1.70;;;21.70;65.30;;;;;;4937160;29;20758;-90
2023/04/19 11:34:23;;;;;;;2.87;1.50;;;21.70;65.10;;;;;;4936904;29;20461;-91
2023/04/19 11:36:51;;;;;;;1.97;1.30;;;21.80;65.90;;;;;;4937018;29;20459;-90
2023/04/19 11:39:18;;;;;;;2.43;1.40;;;21.80;65.10;;;;;;4937067;29;20447;-90
2023/04/19 11:41:46;;;;;;;2.70;1.90;;;21.90;65.20;;;;;;4936854;29;20538;-90
2023/04/19 11:44:19;;;;;;;2.07;1.80;;;21.90;65.30;;;;;;4936772;29;20860;-90
2023/04/19 11:47:04;;;;;;;3.10;1.40;;;21.90;65.30;;;;;;4936710;29;20526;-90
2023/04/19 11:49:33;;;;;;;3.73;1.80;;;21.90;64.90;;;;;;4936347;29;20930;-86
2023/04/19 11:52:01;;;;;;;2.47;1.53;;;21.90;64.50;;;;;;4936572;29;20455;-84
2023/04/19 11:54:28;;;;;;;1.77;1.63;;;21.80;63.70;;;;;;4936556;29;20454;-83
2023/04/19 11:57:03;;;;;;;1.60;1.50;;;21.80;63.10;;;;;;4936221;29;20458;-84
2023/04/19 11:59:32;;;;;;;3.93;1.43;;;21.80;62.80;;;;;;4936189;29;20455;-84
2023/04/19 12:02:10;;;;;;;7.83;1.37;;;21.80;62.30;;;;;;4936384;29;20453;-84
2023/04/19 12:04:37;;;;;;;2.37;1.70;;;21.80;63.00;;;;;;4936392;29;20470;-84
2023/04/19 12:07:05;;;;;;;1.70;1.60;;;21.80;62.60;;;;;;4936078;29;21020;-85
2023/04/19 12:09:34;;;;;;;1.87;1.77;;;21.80;63.30;;;;;;4936091;29;20478;-84
2023/04/19 12:12:01;;;;;;;2.60;1.53;;;21.80;63.00;;;;;;4936208;29;20934;-87
2023/04/19 12:14:28;;;;;;;3.53;1.60;;;21.80;61.90;;;;;;4935916;29;21016;-86
2023/04/19 12:17:07;;;;;;;2.30;1.60;;;21.80;61.30;;;;;;4936102;29;20445;-88
2023/04/19 12:19:36;;;;;;;3.33;1.50;;;21.80;61.70;;;;;;4937090;29;20524;-89
2023/04/19 12:22:14;;;;;;;5.93;1.50;;;21.80;63.30;;;;;;4935954;29;20506;-88
2023/04/19 12:24:41;;;;;;;1.40;1.30;;;21.80;62.00;;;;;;4936020;29;20434;-87
2023/04/19 12:27:09;;;;;;;3.30;1.43;;;21.80;63.00;;;;;;4935919;29;20485;-87
2023/04/19 12:29:36;;;;;;;3.03;1.60;;;21.80;63.20;;;;;;4935972;29;20465;-87
2023/04/19 12:32:03;;;;;;;2.77;1.20;;;21.80;62.50;;;;;;4935876;29;20789;-87
2023/04/19 12:34:31;;;;;;;1.90;1.60;;;21.80;63.40;;;;;;4936047;29;20472;-87
2023/04/19 12:36:58;;;;;;;2.70;1.40;;;21.80;63.00;;;;;;4935889;29;20453;-87
2023/04/19 12:39:25;;;;;;;3.83;1.77;;;21.80;63.40;;;;;;4935826;29;20969;-87
2023/04/19 12:41:51;;;;;;;1.50;1.33;;;21.80;63.40;;;;;;4935806;29;20455;-88
2023/04/19 12:44:18;;;;;;;3.30;1.50;;;21.80;63.00;;;;;;4936245;29;20463;-89
2023/04/19 12:46:45;;;;;;;2.10;1.60;;;21.80;63.10;;;;;;4936281;29;20482;-89
2023/04/19 12:49:12;;;;;;;1.80;1.47;;;21.80;63.40;;;;;;4936117;29;20479;-91
2023/04/19 12:51:41;;;;;;;4.90;1.70;;;21.80;61.50;;;;;;4936004;29;20451;-90
2023/04/19 12:54:08;;;;;;;4.67;1.70;;;21.70;59.90;;;;;;4936407;29;20447;-90
2023/04/19 12:56:35;;;;;;;8.70;2.07;;;21.70;62.20;;;;;;4936961;29;20447;-90
2023/04/19 12:59:02;;;;;;;5.63;1.60;;;21.70;63.00;;;;;;4936181;29;20465;-90
2023/04/19 13:01:29;;;;;;;4.40;1.73;;;21.80;63.50;;;;;;4937556;29;20542;-90
2023/04/19 13:03:55;;;;;;;2.83;1.47;;;21.80;63.70;;;;;;4939827;29;20474;-90
2023/04/19 13:06:22;;;;;;;5.23;1.33;;;21.90;63.90;;;;;;4939956;29;20792;-89
2023/04/19 13:08:50;;;;;;;6.13;1.50;;;21.90;64.00;;;;;;4939704;29;20490;-89
2023/04/19 13:11:21;;;;;;;1.70;1.60;;;21.90;64.10;;;;;;4939811;29;20957;-88
2023/04/19 13:13:50;;;;;;;2.83;1.60;;;22.00;64.40;;;;;;4939871;29;20513;-88
2023/04/19 13:16:17;;;;;;;3.83;1.80;;;22.00;64.50;;;;;;4940197;29;20442;-88
2023/04/19 13:18:44;;;;;;;4.43;1.83;;;22.00;64.50;;;;;;4939817;29;20441;-89
2023/04/19 13:21:11;;;;;;;5.03;1.70;;;22.00;64.70;;;;;;4939220;29;20482;-88
2023/04/19 13:23:38;;;;;;;7.80;1.40;;;22.10;64.80;;;;;;4939509;29;20446;-89
2023/04/19 13:26:06;;;;;;;3.93;1.47;;;22.10;64.80;;;;;;4939312;29;20472;-88
2023/04/19 13:28:35;;;;;;;2.63;1.70;;;22.10;64.90;;;;;;4939384;29;20498;-89
2023/04/19 13:31:02;;;;;;;5.43;1.60;;;22.10;65.10;;;;;;4939679;29;20458;-92
2023/04/19 13:33:29;;;;;;;4.90;1.60;;;22.10;64.80;;;;;;4939849;29;20449;-91